createdAt,value
2023-02-28T00:01:52.019Z,7.85
2023-02-28T00:04:37.416Z,9.40
2023-02-28T00:07:23.341Z,8.95
2023-02-28T00:10:11.920Z,6.63
2023-02-28T00:13:05.579Z,8.73
2023-02-28T00:16:02.425Z,9.90
2023-02-28T00:18:50.897Z,12.77
2023-02-28T00:21:36.620Z,7.88
2023-02-28T00:24:22.056Z,14.68
2023-02-28T00:27:07.702Z,9.38
2023-02-28T00:29:54.965Z,15.88
2023-02-28T00:32:41.066Z,8.00
2023-02-28T00:35:26.706Z,9.77
2023-02-28T00:38:12.305Z,12.73
2023-02-28T00:40:57.898Z,11.48
2023-02-28T00:43:43.805Z,14.10
2023-02-28T00:46:29.342Z,11.40
2023-02-28T00:49:14.844Z,7.43
2023-02-28T00:52:00.310Z,7.97
2023-02-28T00:54:45.796Z,13.18
2023-02-28T00:57:31.549Z,7.68
2023-02-28T01:00:17.408Z,9.63
2023-02-28T01:03:02.994Z,10.68
2023-02-28T01:05:48.950Z,12.88
2023-02-28T01:08:34.450Z,16.45
2023-02-28T01:11:20.122Z,12.15
2023-02-28T01:14:06.032Z,11.95
2023-02-28T01:16:52.708Z,10.52
2023-02-28T01:19:38.020Z,8.23
2023-02-28T01:22:24.015Z,13.13
2023-02-28T01:25:09.592Z,10.48
2023-02-28T01:27:55.216Z,9.05
2023-02-28T01:30:40.733Z,12.63
2023-02-28T01:33:26.936Z,10.73
2023-02-28T01:36:15.311Z,10.90
2023-02-28T01:39:00.777Z,13.70
2023-02-28T01:41:46.314Z,8.70
2023-02-28T01:44:59.935Z,11.52
2023-02-28T01:47:46.421Z,11.82
2023-02-28T01:50:37.283Z,8.63
2023-02-28T01:53:31.390Z,9.75
2023-02-28T01:56:21.671Z,12.63
2023-02-28T01:59:07.412Z,10.57
2023-02-28T02:01:54.848Z,10.77
2023-02-28T02:04:51.031Z,9.27
2023-02-28T02:07:39.983Z,12.52
2023-02-28T02:10:47.487Z,7.68
2023-02-28T02:14:06.680Z,9.05
2023-02-28T02:17:15.938Z,11.75
2023-02-28T02:20:39.048Z,15.00
2023-02-28T02:23:34.896Z,11.07
2023-02-28T02:26:40.519Z,8.88
2023-02-28T02:29:25.790Z,10.80
2023-02-28T02:32:32.338Z,11.15
2023-02-28T02:35:49.786Z,10.20
2023-02-28T02:38:49.833Z,10.80
2023-02-28T02:41:41.721Z,9.63
2023-02-28T02:44:42.092Z,9.40
2023-02-28T02:47:31.614Z,9.45
2023-02-28T02:50:24.952Z,8.90
2023-02-28T02:53:13.572Z,11.95
2023-02-28T02:56:00.708Z,13.05
2023-02-28T02:58:49.047Z,10.15
2023-02-28T03:01:37.177Z,10.52
2023-02-28T03:04:24.923Z,8.20
2023-02-28T03:07:10.800Z,8.27
2023-02-28T03:09:58.408Z,13.70
2023-02-28T03:12:57.903Z,13.55
2023-02-28T03:16:16.557Z,11.82
2023-02-28T03:19:14.391Z,12.73
2023-02-28T03:22:18.789Z,14.50
2023-02-28T03:25:03.950Z,14.18
2023-02-28T03:27:58.366Z,12.30
2023-02-28T03:30:58.812Z,12.70
2023-02-28T03:33:55.693Z,11.27
2023-02-28T03:36:47.995Z,9.63
2023-02-28T03:39:45.404Z,11.43
2023-02-28T03:42:35.037Z,11.95
2023-02-28T03:45:28.337Z,12.25
2023-02-28T03:48:18.768Z,8.85
2023-02-28T03:51:06.940Z,11.80
2023-02-28T03:53:57.908Z,26.90
2023-02-28T03:56:57.740Z,8.02
2023-02-28T04:00:00.034Z,11.60
2023-02-28T04:02:46.271Z,18.35
2023-02-28T04:05:32.324Z,12.73
2023-02-28T04:08:17.909Z,12.00
2023-02-28T04:11:17.028Z,8.73
2023-02-28T04:14:06.263Z,11.43
2023-02-28T04:16:54.553Z,13.07
2023-02-28T04:19:40.156Z,13.23
2023-02-28T04:22:28.115Z,14.05
2023-02-28T04:25:13.320Z,15.07
2023-02-28T04:27:58.774Z,15.57
2023-02-28T04:30:43.960Z,10.40
2023-02-28T04:33:29.888Z,11.00
2023-02-28T04:36:15.677Z,11.13
2023-02-28T04:39:01.210Z,14.05
2023-02-28T04:41:47.578Z,10.70
2023-02-28T04:44:32.935Z,9.68
2023-02-28T04:47:18.380Z,13.07
2023-02-28T04:50:04.727Z,10.00
2023-02-28T04:52:49.909Z,13.00
2023-02-28T04:55:35.510Z,14.68
2023-02-28T04:58:23.385Z,14.18
2023-02-28T05:01:22.732Z,9.85
2023-02-28T05:04:08.166Z,10.13
2023-02-28T05:06:54.668Z,11.18
2023-02-28T05:09:40.209Z,13.45
2023-02-28T05:12:25.977Z,10.57
2023-02-28T05:15:16.559Z,10.65
2023-02-28T05:18:01.720Z,12.20
2023-02-28T05:20:47.446Z,15.93
2023-02-28T05:23:33.441Z,12.23
2023-02-28T05:26:19.294Z,12.70
2023-02-28T05:29:04.897Z,11.95
2023-02-28T05:31:50.818Z,17.23
2023-02-28T05:34:37.831Z,11.88
2023-02-28T05:37:23.436Z,14.77
2023-02-28T05:40:12.872Z,14.98
2023-02-28T05:42:58.177Z,11.68
2023-02-28T05:45:43.776Z,13.73
2023-02-28T05:48:29.388Z,11.73
2023-02-28T05:51:14.923Z,12.30
2023-02-28T05:54:02.219Z,15.80
2023-02-28T05:56:47.876Z,11.80
2023-02-28T05:59:33.108Z,10.95
2023-02-28T06:02:19.366Z,13.45
2023-02-28T06:05:04.785Z,11.05
2023-02-28T06:07:50.085Z,17.95
2023-02-28T06:10:36.530Z,14.23
2023-02-28T06:13:21.856Z,16.23
2023-02-28T06:16:08.310Z,16.70
2023-02-28T06:18:53.897Z,15.38
2023-02-28T06:21:39.516Z,13.90
2023-02-28T06:24:29.047Z,17.17
2023-02-28T06:27:14.799Z,18.77
2023-02-28T06:30:00.509Z,17.50
2023-02-28T06:32:46.042Z,13.25
2023-02-28T06:35:31.964Z,19.52
2023-02-28T06:38:17.354Z,17.40
2023-02-28T06:41:03.974Z,18.50
2023-02-28T06:43:49.413Z,19.05
2023-02-28T06:46:35.123Z,16.50
2023-02-28T06:49:20.610Z,21.27
2023-02-28T06:52:06.327Z,18.73
2023-02-28T06:55:00.767Z,18.90
2023-02-28T06:57:46.365Z,21.33
2023-02-28T07:00:32.042Z,26.48
2023-02-28T07:03:18.846Z,17.13
2023-02-28T07:06:05.659Z,22.23
2023-02-28T07:08:53.243Z,16.20
2023-02-28T07:11:38.497Z,21.23
2023-02-28T07:14:23.824Z,21.88
2023-02-28T07:17:12.529Z,17.17
2023-02-28T07:19:58.299Z,21.10
2023-02-28T07:22:43.891Z,15.07
2023-02-28T07:25:30.034Z,17.00
2023-02-28T07:28:15.837Z,18.05
2023-02-28T07:31:08.363Z,20.38
2023-02-28T07:33:54.974Z,21.53
2023-02-28T07:36:40.790Z,18.17
2023-02-28T07:39:26.737Z,16.15
2023-02-28T07:42:13.808Z,14.15
2023-02-28T07:45:00.004Z,19.13
2023-02-28T07:47:45.968Z,16.33
2023-02-28T07:50:32.214Z,16.35
2023-02-28T07:53:17.811Z,17.55
2023-02-28T07:56:04.843Z,15.02
2023-02-28T07:58:50.066Z,14.02
2023-02-28T08:01:36.010Z,12.98
2023-02-28T08:04:21.852Z,15.20
2023-02-28T08:07:07.727Z,15.38
2023-02-28T08:09:53.004Z,15.15
2023-02-28T08:12:38.328Z,15.70
2023-02-28T08:15:23.953Z,15.80
2023-02-28T08:18:09.677Z,18.67
2023-02-28T08:20:55.077Z,16.77
2023-02-28T08:23:40.826Z,11.05
2023-02-28T08:26:26.675Z,12.35
2023-02-28T08:29:12.211Z,11.88
2023-02-28T08:31:58.296Z,10.60
2023-02-28T08:34:43.748Z,9.45
2023-02-28T08:37:29.574Z,12.50
2023-02-28T08:40:19.137Z,7.78
2023-02-28T08:43:04.838Z,11.10
2023-02-28T08:45:53.336Z,9.70
2023-02-28T08:48:41.325Z,10.02
2023-02-28T08:51:28.313Z,10.82
2023-02-28T08:54:14.042Z,7.05
2023-02-28T08:56:59.420Z,9.25
2023-02-28T08:59:44.889Z,8.20
2023-02-28T09:02:30.437Z,8.80
2023-02-28T09:05:15.856Z,5.93
2023-02-28T09:08:01.217Z,7.38
2023-02-28T09:10:47.008Z,6.78
2023-02-28T09:13:33.341Z,8.07
2023-02-28T09:16:19.037Z,4.65
2023-02-28T09:19:04.591Z,6.82
2023-02-28T09:21:50.019Z,4.13
2023-02-28T09:24:37.162Z,5.93
2023-02-28T09:27:22.853Z,4.85
2023-02-28T09:30:10.617Z,5.65
2023-02-28T09:32:56.365Z,4.25
2023-02-28T09:35:42.016Z,5.78
2023-02-28T09:38:28.894Z,4.70
2023-02-28T09:41:18.675Z,7.70
2023-02-28T09:44:05.328Z,3.58
2023-02-28T09:46:57.028Z,7.70
2023-02-28T09:49:47.496Z,3.28
2023-02-28T09:52:33.599Z,6.10
2023-02-28T09:55:21.985Z,5.47
2023-02-28T09:58:18.307Z,6.95
2023-02-28T10:01:19.104Z,7.95
2023-02-28T10:04:37.013Z,10.93
2023-02-28T10:07:44.467Z,6.53
2023-02-28T10:10:41.821Z,7.32
2023-02-28T10:13:27.586Z,8.48
2023-02-28T10:16:17.699Z,10.02
2023-02-28T10:19:22.651Z,17.50
2023-02-28T10:22:23.100Z,7.90
2023-02-28T10:25:20.181Z,8.52
2023-02-28T10:28:18.903Z,8.68
2023-02-28T10:31:05.118Z,11.30
2023-02-28T10:33:51.481Z,7.80
2023-02-28T10:36:36.955Z,5.65
2023-02-28T10:39:44.544Z,10.02
2023-02-28T10:42:31.158Z,10.63
2023-02-28T10:45:18.121Z,7.15
2023-02-28T10:48:16.222Z,12.25
2023-02-28T10:51:05.262Z,5.18
2023-02-28T10:54:03.101Z,14.77
2023-02-28T10:57:08.167Z,5.22
2023-02-28T11:00:14.563Z,8.25
2023-02-28T11:03:00.738Z,6.70
2023-02-28T11:05:47.484Z,2.95
2023-02-28T11:08:33.736Z,6.47
2023-02-28T11:11:20.934Z,4.07
2023-02-28T11:14:08.720Z,4.85
2023-02-28T11:16:56.240Z,6.93
2023-02-28T11:19:47.549Z,8.32
2023-02-28T11:22:38.941Z,5.28
2023-02-28T11:25:28.193Z,1.92
2023-02-28T11:28:35.345Z,3.22
2023-02-28T11:31:21.766Z,3.78
2023-02-28T11:34:26.122Z,5.18
2023-02-28T11:37:21.441Z,5.18
2023-02-28T11:40:15.372Z,7.15
2023-02-28T11:46:10.210Z,6.55
2023-02-28T11:49:27.179Z,6.65
2023-02-28T11:52:49.620Z,8.95
2023-02-28T11:55:42.142Z,6.43
2023-02-28T11:58:48.960Z,5.43
2023-02-28T12:01:43.148Z,6.95
2023-02-28T12:04:29.300Z,6.78
2023-02-28T12:07:26.545Z,8.10
2023-02-28T12:10:23.366Z,7.07
2023-02-28T12:13:21.619Z,5.85
2023-02-28T12:16:45.852Z,6.32
2023-02-28T12:20:02.784Z,4.35
2023-02-28T12:23:09.497Z,5.97
2023-02-28T12:26:34.621Z,6.90
2023-02-28T12:29:33.953Z,6.88
2023-02-28T12:32:45.981Z,8.13
2023-02-28T12:35:50.663Z,9.75
2023-02-28T12:38:41.992Z,6.95
2023-02-28T12:41:45.452Z,8.30
2023-02-28T12:44:45.967Z,6.90
2023-02-28T12:47:31.452Z,5.55
2023-02-28T12:50:17.680Z,4.72
2023-02-28T12:53:11.947Z,5.10
2023-02-28T12:56:30.643Z,5.47
2023-02-28T12:59:30.993Z,5.30
2023-02-28T13:02:45.093Z,9.00
2023-02-28T13:05:40.454Z,5.65
2023-02-28T13:08:45.941Z,4.35
2023-02-28T13:11:52.958Z,5.13
2023-02-28T13:14:39.745Z,7.32
2023-02-28T13:17:27.087Z,7.32
2023-02-28T13:20:24.135Z,6.28
2023-02-28T13:23:52.304Z,6.10
2023-02-28T13:26:37.754Z,4.90
2023-02-28T13:29:32.447Z,5.80
2023-02-28T13:32:27.474Z,5.78
2023-02-28T13:35:15.512Z,7.50
2023-02-28T13:38:17.868Z,4.85
2023-02-28T13:41:31.851Z,7.40
2023-02-28T13:44:27.664Z,7.65
2023-02-28T13:47:25.728Z,4.63
2023-02-28T13:50:26.958Z,7.22
2023-02-28T13:53:27.505Z,6.25
2023-02-28T13:56:35.044Z,6.93
2023-02-28T13:59:41.366Z,5.85
2023-02-28T14:02:44.626Z,5.72
2023-02-28T14:05:32.560Z,6.13
2023-02-28T14:08:23.334Z,5.60
2023-02-28T14:11:27.580Z,5.20
2023-02-28T14:14:54.432Z,4.88
2023-02-28T14:17:41.700Z,3.92
2023-02-28T14:20:32.989Z,5.88
2023-02-28T14:23:37.099Z,4.20
2023-02-28T14:26:56.829Z,4.45
2023-02-28T14:29:51.811Z,5.53
2023-02-28T14:32:44.891Z,2.95
2023-02-28T14:35:58.960Z,4.15
2023-02-28T14:38:55.995Z,2.63
2023-02-28T14:41:43.511Z,5.35
2023-02-28T14:44:29.107Z,3.97
2023-02-28T14:47:17.439Z,3.92
2023-02-28T14:50:05.260Z,4.88
2023-02-28T14:52:56.120Z,3.00
2023-02-28T14:55:46.429Z,4.93
2023-02-28T14:58:34.090Z,4.00
2023-02-28T15:01:23.259Z,5.20
2023-02-28T15:04:28.345Z,4.75
2023-02-28T15:07:16.957Z,4.45
2023-02-28T15:10:28.097Z,8.57
2023-02-28T15:13:16.171Z,4.28
2023-02-28T15:16:09.561Z,3.47
2023-02-28T15:19:21.696Z,4.47
2023-02-28T15:22:13.881Z,7.53
2023-02-28T15:25:00.165Z,4.93
2023-02-28T15:27:50.496Z,3.97
2023-02-28T15:30:36.218Z,4.03
2023-02-28T15:33:25.925Z,4.00
2023-02-28T15:36:21.930Z,2.17
2023-02-28T15:39:26.018Z,5.40
2023-02-28T15:42:21.777Z,4.10
2023-02-28T15:45:27.327Z,4.53
2023-02-28T15:48:25.713Z,2.95
2023-02-28T15:51:46.863Z,4.57
2023-02-28T15:54:35.965Z,4.63
2023-02-28T15:57:25.364Z,4.95
2023-02-28T16:00:15.240Z,2.97
2023-02-28T16:03:01.074Z,3.65
2023-02-28T16:05:46.892Z,3.65
2023-02-28T16:08:32.298Z,4.95
2023-02-28T16:11:18.121Z,4.43
2023-02-28T16:14:04.251Z,3.35
2023-02-28T16:16:52.866Z,5.43
2023-02-28T16:19:38.758Z,2.70
2023-02-28T16:22:24.639Z,4.13
2023-02-28T16:25:17.762Z,3.88
2023-02-28T16:30:52.593Z,3.53
2023-02-28T16:33:38.240Z,5.40
2023-02-28T16:36:28.816Z,4.70
2023-02-28T16:39:14.432Z,3.15
2023-02-28T16:41:59.929Z,4.75
2023-02-28T16:44:46.931Z,2.97
2023-02-28T16:47:33.844Z,4.93
2023-02-28T16:50:22.720Z,2.78
2023-02-28T16:53:08.213Z,4.60
2023-02-28T16:55:53.530Z,2.95
2023-02-28T16:58:39.502Z,6.75
2023-02-28T17:02:04.687Z,1.75
2023-02-28T17:04:50.485Z,4.72
2023-02-28T17:07:36.232Z,4.50
2023-02-28T17:10:44.159Z,13.60
2023-02-28T17:13:31.963Z,3.92
2023-02-28T17:16:35.875Z,5.57
2023-02-28T17:19:21.964Z,4.13
2023-02-28T17:22:09.715Z,5.85
2023-02-28T17:24:58.721Z,4.70
2023-02-28T17:27:44.570Z,3.60
2023-02-28T17:30:30.449Z,4.72
2023-02-28T17:33:16.573Z,2.30
2023-02-28T17:36:02.747Z,4.38
2023-02-28T17:38:48.277Z,3.33
2023-02-28T17:41:33.934Z,6.82
2023-02-28T17:44:20.654Z,2.08
2023-02-28T17:47:06.413Z,2.42
2023-02-28T17:49:52.141Z,4.20
2023-02-28T17:52:37.847Z,3.78
2023-02-28T17:55:23.387Z,5.45
2023-02-28T17:58:12.737Z,3.70
2023-02-28T18:00:58.506Z,5.32
2023-02-28T18:03:43.826Z,2.03
2023-02-28T18:06:47.262Z,4.10
2023-02-28T18:09:33.040Z,6.00
2023-02-28T18:12:18.537Z,5.03
2023-02-28T18:15:04.568Z,3.40
2023-02-28T18:17:51.015Z,4.47
2023-02-28T18:20:37.501Z,3.92
2023-02-28T18:23:23.257Z,3.65
2023-02-28T18:26:09.315Z,5.25
2023-02-28T18:28:54.704Z,3.97
2023-02-28T18:31:40.730Z,3.97
2023-02-28T18:34:26.458Z,7.22
2023-02-28T18:37:12.334Z,3.13
2023-02-28T18:39:58.155Z,3.35
2023-02-28T18:42:43.389Z,5.28
2023-02-28T18:45:29.148Z,5.43
2023-02-28T18:48:19.601Z,6.07
2023-02-28T18:51:09.945Z,4.20
2023-02-28T18:54:01.896Z,5.40
2023-02-28T18:56:48.544Z,4.75
2023-02-28T18:59:34.243Z,5.53
2023-02-28T19:02:20.220Z,5.00
2023-02-28T19:05:08.506Z,2.35
2023-02-28T19:07:56.661Z,3.10
2023-02-28T19:10:42.416Z,2.72
2023-02-28T19:13:28.972Z,2.35
2023-02-28T19:16:18.841Z,3.30
2023-02-28T19:19:04.755Z,2.75
2023-02-28T19:21:50.378Z,8.25
2023-02-28T19:24:35.616Z,4.70
2023-02-28T19:27:21.156Z,4.03
2023-02-28T19:30:07.620Z,6.20
2023-02-28T19:32:53.107Z,7.00
2023-02-28T19:35:41.359Z,8.10
2023-02-28T19:38:27.310Z,6.53
2023-02-28T19:41:14.266Z,4.60
2023-02-28T19:43:59.472Z,6.38
2023-02-28T19:46:44.954Z,8.85
2023-02-28T19:49:30.747Z,9.00
2023-02-28T19:52:16.145Z,4.80
2023-02-28T19:55:01.520Z,5.25
2023-02-28T19:57:47.195Z,6.25
2023-02-28T20:00:32.888Z,11.07
2023-02-28T20:03:18.554Z,10.85
2023-02-28T20:06:07.407Z,8.60
2023-02-28T20:08:54.772Z,6.63
2023-02-28T20:11:40.408Z,8.00
2023-02-28T20:14:26.616Z,6.82
2023-02-28T20:17:12.064Z,6.82
2023-02-28T20:19:57.291Z,5.90
2023-02-28T20:22:42.911Z,8.68
2023-02-28T20:25:28.441Z,6.28
2023-02-28T20:28:13.988Z,9.00
2023-02-28T20:31:00.637Z,11.48
2023-02-28T20:33:47.531Z,14.77
2023-02-28T20:36:33.187Z,17.60
2023-02-28T20:39:19.038Z,13.35
2023-02-28T20:42:04.649Z,15.15
2023-02-28T20:44:50.243Z,15.88
2023-02-28T20:47:35.677Z,20.00
2023-02-28T20:50:21.324Z,15.90
2023-02-28T20:53:06.901Z,18.73
2023-02-28T20:56:01.323Z,17.10
2023-02-28T20:58:48.991Z,13.70
2023-02-28T21:01:34.286Z,19.63
2023-02-28T21:04:20.182Z,18.65
2023-02-28T21:07:05.716Z,15.82
2023-02-28T21:09:51.340Z,15.93
2023-02-28T21:12:36.915Z,18.48
2023-02-28T21:15:22.813Z,14.90
2023-02-28T21:18:08.112Z,16.13
2023-02-28T21:20:53.736Z,16.77
2023-02-28T21:23:39.725Z,18.98
2023-02-28T21:26:25.529Z,16.20
2023-02-28T21:29:12.018Z,16.25
2023-02-28T21:31:57.589Z,14.35
2023-02-28T21:34:43.340Z,18.33
2023-02-28T21:37:28.641Z,13.95
2023-02-28T21:40:14.463Z,13.50
2023-02-28T21:42:59.731Z,13.68
2023-02-28T21:45:45.248Z,15.38
2023-02-28T21:48:31.232Z,16.75
2023-02-28T21:51:19.414Z,16.42
2023-02-28T21:54:04.949Z,19.45
2023-02-28T21:56:53.131Z,17.92
2023-02-28T21:59:38.822Z,15.90
2023-02-28T22:02:24.555Z,18.00
2023-02-28T22:05:10.110Z,15.68
2023-02-28T22:07:55.732Z,16.60
2023-02-28T22:10:41.310Z,12.63
2023-02-28T22:13:26.901Z,16.08
2023-02-28T22:16:15.836Z,11.68
2023-02-28T22:19:05.024Z,9.27
2023-02-28T22:21:50.668Z,9.15
2023-02-28T22:24:36.205Z,9.98
2023-02-28T22:27:21.887Z,12.27
2023-02-28T22:30:07.788Z,10.52
2023-02-28T22:32:53.253Z,12.10
2023-02-28T22:35:38.599Z,10.50
2023-02-28T22:38:24.103Z,8.85
2023-02-28T22:41:11.863Z,12.77
2023-02-28T22:44:00.477Z,11.90
2023-02-28T22:46:45.762Z,11.23
2023-02-28T22:49:31.213Z,14.90
2023-02-28T22:52:16.747Z,15.40
2023-02-28T22:55:01.935Z,13.25
2023-02-28T22:57:47.498Z,14.05
2023-02-28T23:00:32.759Z,15.18
2023-02-28T23:03:18.525Z,13.30
2023-02-28T23:06:13.818Z,12.38
2023-02-28T23:09:02.053Z,15.20
2023-02-28T23:11:50.493Z,15.55
2023-02-28T23:14:35.946Z,15.70
2023-02-28T23:17:21.603Z,13.07
2023-02-28T23:20:07.373Z,13.68
2023-02-28T23:22:53.023Z,16.23
2023-02-28T23:25:42.508Z,18.63
2023-02-28T23:28:27.856Z,18.30
2023-02-28T23:31:13.517Z,14.25
2023-02-28T23:33:59.237Z,16.73
2023-02-28T23:36:47.399Z,23.42
2023-02-28T23:39:32.893Z,15.88
2023-02-28T23:42:18.685Z,15.35
2023-02-28T23:45:05.092Z,19.95
2023-02-28T23:47:50.525Z,18.05
2023-02-28T23:50:38.066Z,17.83
2023-02-28T23:53:24.309Z,15.38
2023-02-28T23:56:13.777Z,16.38
2023-02-28T23:58:59.680Z,16.88
